Time;durP1;ratioP1;P1;durP2;ratioP2;P2;SDS_P1;SDS_P2;PMS_P1;PMS_P2;Temp;Humidity;BMP_temperature;BMP_pressure;BME280_temperature;BME280_humidity;BME280_pressure;Samples;Min_cycle;Max_cycle;Signal;HPM_P1;HPM_P2
2023/01/30 13:46:03;;;;;;;18.35;2.63;;;10.30;99.90;;;;;;5071216;23;20267;-95
2023/01/30 13:48:32;;;;;;;19.25;2.72;;;10.00;99.90;;;;;;5074582;23;20178;-94
2023/01/30 13:50:57;;;;;;;7.75;1.38;;;9.90;99.90;;;;;;5004906;23;20163;-94
2023/01/30 13:53:04;;;;;;;16.75;2.47;;;9.70;99.90;;;;;;5063295;23;20154;-95
2023/01/30 13:55:40;;;;;;;20.08;2.15;;;9.60;99.90;;;;;;5060861;23;20513;-94
2023/01/30 13:57:50;;;;;;;13.30;2.33;;;9.50;99.90;;;;;;5031409;23;20186;-95
2023/01/30 14:00:29;;;;;;;23.40;3.55;;;9.40;99.90;;;;;;5049212;23;20157;-95
2023/01/30 14:02:30;;;;;;;23.30;2.75;;;9.60;99.90;;;;;;5024471;23;20194;-94
2023/01/30 14:04:40;;;;;;;10.23;2.13;;;9.80;99.90;;;;;;5049934;23;20165;-95
2023/01/30 14:06:43;;;;;;;16.95;2.47;;;9.90;99.90;;;;;;5049453;23;20162;-95
2023/01/30 14:08:44;;;;;;;14.60;1.95;;;9.90;99.90;;;;;;5048798;23;20175;-96
2023/01/30 14:10:51;;;;;;;20.05;2.75;;;9.90;99.90;;;;;;5049506;23;20166;-94
2023/01/30 14:13:05;;;;;;;19.60;2.38;;;9.80;99.90;;;;;;5049296;23;20150;-96
2023/01/30 14:15:14;;;;;;;25.17;2.38;;;9.70;99.90;;;;;;5047992;23;20166;-96
2023/01/30 14:17:24;;;;;;;11.63;2.10;;;9.50;99.90;;;;;;5046813;23;20150;-95
2023/01/30 14:20:13;;;;;;;10.13;1.70;;;9.40;99.90;;;;;;5074463;23;20154;-96
2023/01/30 14:22:24;;;;;;;15.20;2.58;;;9.30;99.90;;;;;;5048041;23;20261;-94
2023/01/30 14:24:30;;;;;;;20.90;2.78;;;9.30;99.90;;;;;;5054730;23;20138;-95
2023/01/30 14:26:59;;;;;;;11.13;2.28;;;9.50;99.90;;;;;;5049137;23;20154;-95
2023/01/30 14:29:00;;;;;;;15.82;3.00;;;9.30;99.90;;;;;;5047825;23;20637;-96
2023/01/30 14:31:06;;;;;;;23.45;3.20;;;9.40;99.90;;;;;;5071147;23;20597;-95
2023/01/30 14:33:33;;;;;;;18.13;2.30;;;9.20;99.90;;;;;;5048184;23;20150;-95
2023/01/30 14:35:34;;;;;;;17.83;2.15;;;9.30;99.90;;;;;;5046689;23;20159;-93
2023/01/30 14:37:36;;;;;;;17.27;2.63;;;9.30;99.90;;;;;;5046249;23;20253;-95
2023/01/30 14:39:48;;;;;;;11.48;2.03;;;9.00;99.90;;;;;;5047652;23;20201;-95
2023/01/30 14:42:21;;;;;;;10.50;2.00;;;9.10;99.90;;;;;;5046384;23;20150;-94
2023/01/30 14:44:58;;;;;;;9.18;1.45;;;9.00;99.90;;;;;;5023646;23;20483;-94
2023/01/30 14:47:02;;;;;;;15.43;2.03;;;9.00;99.90;;;;;;5011171;23;20170;-94
2023/01/30 14:49:24;;;;;;;18.80;2.92;;;9.00;99.90;;;;;;5023311;23;20182;-94
2023/01/30 14:51:35;;;;;;;25.33;3.05;;;9.10;99.90;;;;;;5047844;23;20203;-95
2023/01/30 14:54:00;;;;;;;11.38;2.22;;;9.20;99.90;;;;;;5070582;23;20157;-96
2023/01/30 14:56:03;;;;;;;27.00;3.25;;;9.10;99.90;;;;;;5048459;23;20192;-96
2023/01/30 14:58:14;;;;;;;20.25;2.85;;;9.30;99.90;;;;;;5045619;23;20174;-95
2023/01/30 15:00:35;;;;;;;;;;;;;;;;;;;;;
2023/01/30 15:03:01;;;;;;;27.02;2.78;;;9.20;99.90;;;;;;5047618;23;20201;-94
2023/01/30 15:05:11;;;;;;;22.65;2.67;;;9.30;99.90;;;;;;5047085;23;20150;-96
2023/01/30 15:07:26;;;;;;;21.45;2.75;;;9.30;99.90;;;;;;5046687;23;20158;-95
2023/01/30 15:09:43;;;;;;;9.98;2.22;;;9.30;99.90;;;;;;5050309;23;20154;-96
2023/01/30 15:12:25;;;;;;;11.90;1.98;;;9.40;99.90;;;;;;5049773;23;20165;-96
2023/01/30 15:14:58;;;;;;;20.23;4.70;;;9.20;99.90;;;;;;5072226;23;20291;-95
2023/01/30 15:17:11;;;;;;;19.60;4.38;;;9.00;99.90;;;;;;5049336;23;20220;-95
2023/01/30 15:19:33;;;;;;;32.78;6.47;;;9.00;99.90;;;;;;5027541;23;20131;-95
2023/01/30 15:22:08;;;;;;;31.08;7.85;;;9.00;99.90;;;;;;5047598;23;20154;-94
2023/01/30 15:24:23;;;;;;;66.50;16.67;;;8.90;99.90;;;;;;5048811;23;20161;-96
2023/01/30 15:26:41;;;;;;;87.80;25.13;;;9.00;99.90;;;;;;5047919;23;20233;-95
2023/01/30 15:28:52;;;;;;;42.90;11.63;;;9.00;99.90;;;;;;5049687;23;20170;-96
2023/01/30 15:31:22;;;;;;;55.40;18.33;;;9.20;99.90;;;;;;5023923;23;20621;-96
2023/01/30 15:33:41;;;;;;;14.45;2.67;;;9.00;99.90;;;;;;5047842;23;20177;-94
2023/01/30 15:35:54;;;;;;;22.85;6.78;;;8.80;99.90;;;;;;5070437;23;20181;-96
2023/01/30 15:37:58;;;;;;;28.05;6.68;;;8.90;99.90;;;;;;5047346;23;20180;-95
2023/01/30 15:40:14;;;;;;;24.77;8.00;;;8.90;99.90;;;;;;5049968;23;20154;-94
2023/01/30 15:42:17;;;;;;;15.70;3.05;;;9.00;99.90;;;;;;5052869;23;20684;-95
2023/01/30 15:44:49;;;;;;;;;;;;;;;;;;;;;
2023/01/30 15:47:27;;;;;;;30.25;9.35;;;8.90;99.90;;;;;;5049476;23;20173;-94
2023/01/30 15:49:37;;;;;;;23.73;4.68;;;8.90;99.90;;;;;;5052167;23;20189;-95
2023/01/30 15:51:44;;;;;;;23.38;7.88;;;8.70;99.90;;;;;;5026413;23;20158;-95
2023/01/30 15:53:48;;;;;;;21.75;4.85;;;8.60;99.90;;;;;;5046569;23;20606;-94
2023/01/30 15:55:52;;;;;;;29.13;3.95;;;8.60;99.90;;;;;;5049131;23;20158;-95
2023/01/30 15:58:29;;;;;;;33.83;8.15;;;8.50;99.90;;;;;;5074120;23;20214;-94
2023/01/30 16:00:52;;;;;;;25.20;5.43;;;8.50;99.90;;;;;;5052035;23;20166;-95
2023/01/30 16:03:12;;;;;;;22.17;4.80;;;8.50;99.90;;;;;;5050949;23;20194;-95
2023/01/30 16:05:20;;;;;;;19.65;3.20;;;8.50;99.90;;;;;;5048551;23;20154;-95
2023/01/30 16:07:24;;;;;;;34.22;7.85;;;8.60;99.90;;;;;;5049027;23;20154;-94
2023/01/30 16:09:29;;;;;;;19.10;2.60;;;8.50;99.90;;;;;;5048222;23;20162;-96
2023/01/30 16:11:40;;;;;;;23.98;3.83;;;8.60;99.90;;;;;;5024664;23;20476;-93
2023/01/30 16:13:41;;;;;;;21.35;4.90;;;8.40;99.90;;;;;;5049949;23;20293;-94
2023/01/30 16:15:56;;;;;;;24.38;4.50;;;8.40;99.90;;;;;;5051767;23;20163;-94
2023/01/30 16:17:57;;;;;;;30.40;9.38;;;8.40;99.90;;;;;;5049903;23;20170;-95
2023/01/30 16:20:03;;;;;;;18.08;3.75;;;8.50;99.90;;;;;;5051285;23;20166;-95
2023/01/30 16:22:16;;;;;;;35.58;5.03;;;8.60;99.90;;;;;;5048825;23;20210;-95
2023/01/30 16:24:23;;;;;;;14.30;2.38;;;8.70;99.90;;;;;;5052549;23;20230;-95
2023/01/30 16:26:38;;;;;;;19.13;2.85;;;8.70;99.90;;;;;;5061868;23;20158;-95
2023/01/30 16:28:39;;;;;;;27.00;3.53;;;8.80;99.90;;;;;;5060445;23;20216;-96
2023/01/30 16:30:47;;;;;;;21.10;3.13;;;8.80;99.90;;;;;;5050452;23;20213;-96
2023/01/30 16:32:53;;;;;;;19.80;3.97;;;8.70;99.90;;;;;;5023460;23;20174;-94
2023/01/30 16:35:29;;;;;;;26.65;3.47;;;8.70;99.90;;;;;;5074625;23;20161;-96
2023/01/30 16:37:37;;;;;;;25.02;4.82;;;8.70;99.90;;;;;;5049015;23;20182;-96
2023/01/30 16:39:45;;;;;;;19.85;3.28;;;8.80;99.90;;;;;;5025483;23;20162;-95
2023/01/30 16:42:02;;;;;;;33.42;7.60;;;8.50;99.90;;;;;;5049223;23;20161;-95
2023/01/30 16:44:21;;;;;;;27.00;5.10;;;8.70;99.90;;;;;;5070281;23;20169;-95
2023/01/30 16:46:48;;;;;;;22.95;4.50;;;8.60;99.90;;;;;;5049050;23;20169;-95
2023/01/30 16:48:51;;;;;;;32.50;7.78;;;8.50;99.90;;;;;;5026283;23;20191;-95
2023/01/30 16:50:58;;;;;;;30.83;4.47;;;8.50;99.90;;;;;;5071225;23;20150;-96
2023/01/30 16:53:17;;;;;;;17.67;3.13;;;8.50;99.90;;;;;;5051293;23;20181;-95
2023/01/30 16:55:24;;;;;;;34.42;8.35;;;8.40;99.90;;;;;;5048144;23;20613;-96
2023/01/30 16:57:34;;;;;;;43.00;13.50;;;8.50;99.90;;;;;;5049860;23;20138;-95
2023/01/30 16:59:49;;;;;;;59.25;16.45;;;8.60;99.90;;;;;;5054999;23;20146;-95
2023/01/30 17:01:57;;;;;;;83.60;25.08;;;8.80;99.90;;;;;;5052390;23;20298;-96
2023/01/30 17:07:36;;;;;;;34.90;10.60;;;8.90;99.90;;;;;;5081914;23;20196;-96
2023/01/30 17:09:47;;;;;;;26.15;7.47;;;8.80;99.90;;;;;;5056516;23;20158;-96
2023/01/30 17:12:29;;;;;;;19.05;3.92;;;8.50;99.90;;;;;;5054791;23;20150;-95
2023/01/30 17:15:10;;;;;;;28.20;3.97;;;8.50;99.90;;;;;;5067583;23;20216;-95
2023/01/30 17:17:17;;;;;;;22.88;2.78;;;8.70;99.90;;;;;;5032126;23;20170;-93
2023/01/30 17:19:31;;;;;;;17.52;3.08;;;8.80;99.90;;;;;;5057225;23;20221;-95
2023/01/30 17:22:02;;;;;;;26.92;3.90;;;8.90;99.90;;;;;;5055891;23;20274;-96
2023/01/30 17:24:14;;;;;;;17.88;2.60;;;9.10;99.90;;;;;;5076608;23;20206;-96
2023/01/30 17:26:20;;;;;;;22.60;3.45;;;9.00;99.90;;;;;;5056117;23;20158;-95
2023/01/30 17:28:39;;;;;;;26.60;3.30;;;8.90;99.90;;;;;;5055688;23;20162;-96
2023/01/30 17:30:40;;;;;;;24.08;3.15;;;8.90;99.90;;;;;;5033263;23;20163;-96
2023/01/30 17:33:03;;;;;;;25.85;3.45;;;9.10;99.90;;;;;;5058965;23;20158;-94
2023/01/30 17:35:13;;;;;;;19.88;3.40;;;8.90;99.90;;;;;;5054570;23;20158;-96
2023/01/30 17:37:21;;;;;;;18.92;3.03;;;8.80;99.90;;;;;;5053327;23;20158;-96
2023/01/30 17:39:25;;;;;;;19.23;3.20;;;8.80;99.90;;;;;;5054966;23;20146;-95
2023/01/30 17:41:32;;;;;;;21.05;4.20;;;8.90;99.90;;;;;;5057970;23;20145;-95
2023/01/30 17:43:49;;;;;;;29.48;3.42;;;8.90;99.90;;;;;;5056765;23;20198;-95
2023/01/30 17:45:58;;;;;;;30.60;3.38;;;8.80;99.90;;;;;;5029149;23;20155;-95
2023/01/30 17:47:59;;;;;;;23.70;4.03;;;8.60;99.90;;;;;;5052216;23;20182;-96
2023/01/30 17:50:25;;;;;;;20.15;4.22;;;8.70;99.90;;;;;;5051269;23;20185;-95
2023/01/30 17:52:36;;;;;;;22.65;3.80;;;8.70;99.90;;;;;;5077604;23;20146;-95
2023/01/30 17:55:00;;;;;;;27.10;5.75;;;8.70;99.90;;;;;;5058865;23;20186;-96
2023/01/30 17:57:05;;;;;;;26.73;3.50;;;8.80;99.90;;;;;;5054677;23;20172;-94
2023/01/30 17:59:45;;;;;;;22.17;3.80;;;8.70;99.90;;;;;;5057582;23;20186;-95
2023/01/30 18:02:00;;;;;;;22.30;3.33;;;8.90;99.90;;;;;;5057373;23;20138;-95
2023/01/30 18:04:12;;;;;;;19.13;3.30;;;9.00;99.90;;;;;;5055603;23;20186;-95
2023/01/30 18:06:15;;;;;;;24.70;4.60;;;9.00;99.90;;;;;;5078352;23;20158;-96
2023/01/30 18:08:23;;;;;;;14.30;3.10;;;8.90;99.90;;;;;;5056195;23;20174;-96
2023/01/30 18:10:35;;;;;;;23.33;3.80;;;8.80;99.90;;;;;;5053018;23;20166;-96
2023/01/30 18:13:00;;;;;;;21.30;3.78;;;8.90;99.90;;;;;;5055350;23;20253;-95
2023/01/30 18:15:06;;;;;;;25.23;5.70;;;9.10;99.90;;;;;;5075459;23;20241;-95
2023/01/30 18:17:26;;;;;;;19.05;3.95;;;9.20;99.90;;;;;;5052123;23;20158;-96
2023/01/30 18:19:38;;;;;;;27.05;4.50;;;9.00;99.90;;;;;;5033681;23;20155;-96
2023/01/30 18:21:44;;;;;;;26.20;4.13;;;9.20;99.90;;;;;;5056321;23;20146;-95
2023/01/30 18:23:56;;;;;;;26.98;4.15;;;9.30;99.90;;;;;;5055713;23;20188;-96
2023/01/30 18:25:59;;;;;;;26.63;5.63;;;9.30;99.90;;;;;;5054421;23;20157;-95
2023/01/30 18:28:03;;;;;;;25.73;4.43;;;9.20;99.90;;;;;;5058631;23;20268;-96
2023/01/30 18:30:04;;;;;;;27.33;4.93;;;9.10;99.90;;;;;;5083162;23;20165;-96
2023/01/30 18:32:10;;;;;;;27.92;6.50;;;8.90;99.90;;;;;;5056738;23;20142;-95
2023/01/30 18:34:18;;;;;;;23.58;5.60;;;8.80;99.90;;;;;;5029091;23;20166;-95
2023/01/30 18:36:41;;;;;;;71.57;29.73;;;8.90;99.90;;;;;;5058671;23;20167;-95
2023/01/30 18:38:58;;;;;;;32.67;11.32;;;8.80;99.90;;;;;;5033255;23;20159;-96
2023/01/30 18:43:21;;;;;;;47.00;14.70;;;8.70;99.90;;;;;;5078028;23;20237;-95
2023/01/30 18:45:32;;;;;;;41.92;12.38;;;8.70;99.90;;;;;;5029135;23;20195;-95
2023/01/30 18:48:10;;;;;;;37.78;8.25;;;8.50;99.90;;;;;;5079623;23;20177;-95
2023/01/30 18:50:22;;;;;;;79.30;30.45;;;8.40;99.90;;;;;;5054456;23;20154;-95
2023/01/30 18:52:29;;;;;;;75.15;33.97;;;8.30;99.90;;;;;;5053828;23;20165;-96
2023/01/30 18:54:48;;;;;;;127.72;63.55;;;8.10;99.90;;;;;;5058281;23;20153;-95
2023/01/30 18:57:10;;;;;;;119.15;61.00;;;8.10;99.90;;;;;;5065206;23;20151;-93
2023/01/30 18:59:14;;;;;;;104.15;52.03;;;7.80;99.90;;;;;;5041605;23;20183;-95
2023/01/30 19:01:29;;;;;;;58.00;22.42;;;7.80;99.90;;;;;;5061428;23;20158;-96
2023/01/30 19:03:31;;;;;;;50.47;22.38;;;7.70;99.90;;;;;;5031377;23;20234;-96
2023/01/30 19:05:54;;;;;;;42.40;14.15;;;7.60;99.90;;;;;;5058409;23;20154;-96
2023/01/30 19:10:18;;;;;;;34.97;6.63;;;7.60;99.90;;;;;;5072551;23;20221;-96
2023/01/30 19:14:41;;;;;;;30.77;5.40;;;8.00;99.90;;;;;;5080355;23;20142;-96
2023/01/30 19:17:16;;;;;;;102.22;48.13;;;7.90;99.90;;;;;;5033997;23;20226;-96
2023/01/30 19:19:35;;;;;;;56.05;20.33;;;7.90;99.90;;;;;;5053642;23;20158;-96
2023/01/30 19:21:51;;;;;;;89.00;40.92;;;7.60;99.90;;;;;;5052795;23;20166;-96
2023/01/30 19:24:16;;;;;;;164.38;86.15;;;7.50;99.90;;;;;;5052307;23;20586;-95
2023/01/30 19:26:42;;;;;;;94.40;46.38;;;7.40;99.90;;;;;;5007127;23;20159;-95
2023/01/30 19:28:47;;;;;;;77.47;28.30;;;7.30;99.90;;;;;;5033429;23;20194;-95
2023/01/30 19:31:15;;;;;;;36.50;12.48;;;7.20;99.90;;;;;;5056825;23;20165;-96
2023/01/30 19:33:25;;;;;;;26.38;5.97;;;7.40;99.90;;;;;;5033674;23;20159;-95
2023/01/30 19:35:54;;;;;;;31.53;6.83;;;7.40;99.90;;;;;;5053799;23;20265;-96
2023/01/30 19:38:06;;;;;;;;;;;;;;;;;;;;;
2023/01/30 19:40:30;;;;;;;29.33;6.75;;;7.70;99.90;;;;;;5058556;23;20162;-96
2023/01/30 19:42:46;;;;;;;30.17;9.48;;;7.60;99.90;;;;;;5032095;23;20171;-96
2023/01/30 19:44:49;;;;;;;39.45;13.25;;;7.40;99.90;;;;;;5007976;23;20148;-95
2023/01/30 19:47:33;;;;;;;30.35;7.57;;;7.30;99.90;;;;;;5058566;23;20142;-95
2023/01/30 19:50:35;;;;;;;35.45;7.95;;;7.20;99.90;;;;;;5054403;23;20253;-96
2023/01/30 19:52:36;;;;;;;38.33;13.00;;;7.10;99.90;;;;;;5050698;23;20162;-96
2023/01/30 19:54:51;;;;;;;31.08;6.95;;;7.20;99.90;;;;;;5032240;23;20483;-95
2023/01/30 19:56:56;;;;;;;34.40;8.30;;;7.10;99.90;;;;;;5058242;23;20582;-96
2023/01/30 19:59:10;;;;;;;28.33;6.63;;;7.10;99.90;;;;;;5032550;23;20179;-94
2023/01/30 20:01:26;;;;;;;33.95;6.65;;;7.10;99.90;;;;;;5056625;23;20178;-96
2023/01/30 20:03:38;;;;;;;34.40;8.02;;;7.10;99.90;;;;;;5033274;23;20194;-96
2023/01/30 20:05:44;;;;;;;34.83;8.37;;;7.00;99.90;;;;;;5032941;23;20610;-96
2023/01/30 20:07:50;;;;;;;40.77;8.97;;;6.90;99.90;;;;;;5057850;23;20162;-96
2023/01/30 20:09:51;;;;;;;35.70;9.93;;;6.80;99.90;;;;;;5030503;23;20206;-96
2023/01/30 20:11:56;;;;;;;42.10;9.70;;;6.70;99.90;;;;;;5056834;23;20174;-94
2023/01/30 20:14:12;;;;;;;33.37;10.33;;;6.60;99.90;;;;;;5032957;23;20163;-95
2023/01/30 20:16:34;;;;;;;;;;;;;;;;;;;;;
2023/01/30 20:18:44;;;;;;;34.97;9.33;;;6.70;99.90;;;;;;5052163;23;20182;-95
2023/01/30 20:20:50;;;;;;;33.33;9.60;;;6.60;99.90;;;;;;5058097;23;20498;-96
2023/01/30 20:22:51;;;;;;;33.30;9.07;;;6.50;99.90;;;;;;5055734;23;20210;-96
2023/01/30 20:25:14;;;;;;;46.00;9.30;;;6.50;99.90;;;;;;5053212;23;20153;-96
2023/01/30 20:27:45;;;;;;;34.60;8.93;;;6.60;99.90;;;;;;5031261;23;20170;-95
2023/01/30 20:30:18;;;;;;;30.33;7.87;;;6.60;99.90;;;;;;5036718;23;20159;-95
2023/01/30 20:32:19;;;;;;;29.53;7.80;;;6.70;99.90;;;;;;5051879;23;20169;-95
2023/01/30 20:34:25;;;;;;;40.93;10.00;;;6.60;99.90;;;;;;5003820;23;20166;-95
2023/01/30 20:36:26;;;;;;;35.27;10.00;;;6.70;99.90;;;;;;5031715;23;20194;-96
2023/01/30 20:38:40;;;;;;;46.50;9.45;;;6.90;99.90;;;;;;5031749;23;20171;-96
2023/01/30 20:40:41;;;;;;;32.37;8.17;;;7.00;99.90;;;;;;5055616;23;20157;-95
2023/01/30 20:42:47;;;;;;;32.83;10.20;;;7.00;99.90;;;;;;5056834;23;20586;-96
2023/01/30 20:44:49;;;;;;;41.72;11.57;;;7.20;99.90;;;;;;5055414;23;20186;-96
2023/01/30 20:46:55;;;;;;;31.50;7.55;;;7.40;99.90;;;;;;5009655;23;20140;-96
2023/01/30 20:49:00;;;;;;;36.73;7.60;;;7.10;99.90;;;;;;5056853;23;20279;-95
2023/01/30 20:51:19;;;;;;;29.40;7.20;;;7.00;99.90;;;;;;5032262;23;20144;-96
2023/01/30 20:53:25;;;;;;;37.10;7.72;;;7.00;99.90;;;;;;5056834;23;20181;-96
2023/01/30 20:55:58;;;;;;;29.70;8.30;;;7.00;99.90;;;;;;5056114;23;20170;-95
2023/01/30 20:58:04;;;;;;;25.30;6.83;;;7.00;99.90;;;;;;5057370;23;20178;-96
2023/01/30 21:00:05;;;;;;;28.40;7.60;;;7.00;99.90;;;;;;5032559;23;20143;-94
2023/01/30 21:02:41;;;;;;;34.03;7.80;;;7.10;99.90;;;;;;5073854;23;20299;-96
2023/01/30 21:05:12;;;;;;;36.47;8.40;;;7.30;99.90;;;;;;5080285;23;20616;-96
2023/01/30 21:07:43;;;;;;;37.23;8.47;;;7.40;99.90;;;;;;5086926;23;20146;-95
2023/01/30 21:10:09;;;;;;;34.28;7.68;;;7.30;99.90;;;;;;5107185;23;20153;-94
2023/01/30 21:12:14;;;;;;;31.10;7.22;;;7.20;99.90;;;;;;5105657;23;20157;-96
2023/01/30 21:14:45;;;;;;;;;;;;;;;;;;;;;
2023/01/30 21:16:52;;;;;;;29.92;7.45;;;7.00;99.90;;;;;;5108350;23;20157;-95
2023/01/30 21:19:06;;;;;;;33.60;6.83;;;6.90;99.90;;;;;;5080544;23;20560;-96
2023/01/30 21:21:31;;;;;;;29.90;7.10;;;6.90;99.90;;;;;;5080125;23;20161;-96
2023/01/30 21:23:42;;;;;;;35.77;6.60;;;6.70;99.90;;;;;;5080668;23;20177;-95
2023/01/30 21:25:45;;;;;;;32.47;6.83;;;6.60;99.90;;;;;;5077705;23;20205;-95
2023/01/30 21:27:52;;;;;;;32.30;7.03;;;6.60;99.90;;;;;;5078914;23;20257;-96
2023/01/30 21:29:56;;;;;;;37.33;7.27;;;6.60;99.90;;;;;;5083959;23;20196;-95
2023/01/30 21:31:59;;;;;;;30.83;7.20;;;6.70;99.90;;;;;;5067488;23;20158;-96
2023/01/30 21:34:01;;;;;;;32.05;6.63;;;6.60;99.90;;;;;;5067974;23;20142;-96
2023/01/30 21:36:05;;;;;;;31.90;6.47;;;6.60;99.90;;;;;;5084600;23;20154;-95
2023/01/30 21:43:15;;;;;;;40.27;7.30;;;6.40;99.90;;;;;;5079788;23;20194;-96
2023/01/30 21:48:10;;;;;;;32.33;7.17;;;6.60;99.90;;;;;;5076352;23;20165;-96
2023/01/30 21:50:35;;;;;;;33.70;7.13;;;6.70;99.90;;;;;;5078307;23;20158;-96
2023/01/30 21:52:36;;;;;;;29.07;7.67;;;6.80;99.90;;;;;;5104594;23;20161;-95
2023/01/30 21:54:57;;;;;;;35.00;7.70;;;6.70;99.90;;;;;;5076455;23;20162;-95
2023/01/30 21:57:06;;;;;;;34.75;7.78;;;6.90;99.90;;;;;;5106454;23;20208;-96
2023/01/30 21:59:07;;;;;;;31.70;8.33;;;6.90;99.90;;;;;;5079091;23;20193;-95
2023/01/30 22:01:08;;;;;;;31.87;7.37;;;7.00;99.90;;;;;;5079235;23;20169;-96
2023/01/30 22:03:38;;;;;;;30.37;7.17;;;7.20;99.90;;;;;;5082915;23;20233;-96
2023/01/30 22:06:13;;;;;;;;;;;;;;;;;;;;;
2023/01/30 22:08:35;;;;;;;30.93;7.13;;;7.40;99.90;;;;;;5082227;23;20252;-95
2023/01/30 22:10:49;;;;;;;41.58;7.63;;;7.50;99.90;;;;;;5080325;23;20158;-96
2023/01/30 22:13:24;;;;;;;35.63;7.73;;;7.50;99.90;;;;;;5081235;23;20164;-96
2023/01/30 22:15:33;;;;;;;32.13;7.33;;;7.40;99.90;;;;;;5055672;23;20188;-95
2023/01/30 22:17:42;;;;;;;38.25;7.97;;;7.40;99.90;;;;;;5079730;23;20636;-96
2023/01/30 22:19:48;;;;;;;28.88;8.23;;;7.30;99.90;;;;;;5080082;23;20177;-96
2023/01/30 22:22:01;;;;;;;28.52;7.43;;;7.30;99.90;;;;;;5083044;23;20165;-96
2023/01/30 22:24:27;;;;;;;29.38;8.30;;;7.30;99.90;;;;;;5064810;23;20660;-96
2023/01/30 22:26:44;;;;;;;28.25;7.20;;;7.40;99.90;;;;;;5078750;23;20162;-96
2023/01/30 22:29:27;;;;;;;27.33;7.03;;;7.40;99.90;;;;;;5102399;23;20259;-95
2023/01/30 22:31:33;;;;;;;34.35;7.93;;;7.50;99.90;;;;;;5046426;23;20166;-96
2023/01/30 22:33:40;;;;;;;33.25;7.18;;;7.40;99.90;;;;;;5076225;23;20162;-96
2023/01/30 22:35:52;;;;;;;37.93;8.20;;;7.40;99.90;;;;;;5081507;23;20152;-96
2023/01/30 22:37:57;;;;;;;36.35;8.07;;;7.50;99.90;;;;;;5080901;23;20181;-95
2023/01/30 22:40:02;;;;;;;33.27;7.57;;;7.40;99.90;;;;;;5080333;23;20165;-96
2023/01/30 22:45:06;;;;;;;37.47;7.97;;;7.10;99.90;;;;;;5071707;23;20205;-96
2023/01/30 22:50:09;;;;;;;;;;;;;;;;;;;;;
2023/01/30 22:52:26;;;;;;;35.78;8.00;;;7.00;99.90;;;;;;5075713;23;20166;-95
2023/01/30 22:54:46;;;;;;;33.80;7.80;;;7.00;99.90;;;;;;5057295;23;20186;-95
2023/01/30 22:57:27;;;;;;;;;;;;;;;;;;;;;
2023/01/30 22:59:52;;;;;;;34.80;8.40;;;6.80;99.90;;;;;;5054399;23;20170;-95
2023/01/30 23:02:28;;;;;;;33.20;7.87;;;6.70;99.90;;;;;;5029534;23;20162;-96
2023/01/30 23:05:03;;;;;;;;;;;;;;;;;;;;;
2023/01/30 23:07:38;;;;;;;33.70;7.93;;;6.60;99.90;;;;;;5033028;23;20147;-95
2023/01/30 23:10:10;;;;;;;;;;;;;;;;;;;;;
2023/01/30 23:14:51;;;;;;;40.85;8.75;;;6.50;99.90;;;;;;5032044;23;20140;-95
2023/01/30 23:18:53;;;;;;;33.43;7.53;;;6.40;99.90;;;;;;5008102;23;20182;-96
2023/01/30 23:19:39;;;;;;;33.70;7.87;;;6.40;99.90;;;;;;5055361;23;20214;-96
2023/01/30 23:21:46;;;;;;;39.93;8.93;;;6.40;99.90;;;;;;5032768;23;20221;-96
2023/01/30 23:23:55;;;;;;;35.73;8.30;;;6.30;99.90;;;;;;5033906;23;20178;-96
2023/01/30 23:26:04;;;;;;;36.80;8.07;;;6.20;99.90;;;;;;5054132;23;20143;-96
2023/01/30 23:28:33;;;;;;;35.27;8.07;;;6.10;99.90;;;;;;5036002;23;20179;-95
2023/01/30 23:30:54;;;;;;;32.70;8.57;;;5.90;99.90;;;;;;5034236;23;20226;-96
2023/01/30 23:32:58;;;;;;;29.63;7.23;;;5.90;99.90;;;;;;5057061;23;20162;-96
2023/01/30 23:35:45;;;;;;;27.50;7.90;;;5.70;99.90;;;;;;5055281;23;20157;-96
2023/01/30 23:38:25;;;;;;;;;;;;;;;;;;;;;
2023/01/30 23:40:41;;;;;;;34.03;8.03;;;5.90;99.90;;;;;;5031902;23;20158;-96
2023/01/30 23:42:42;;;;;;;32.00;7.10;;;5.90;99.90;;;;;;5034247;23;20178;-96
2023/01/30 23:44:45;;;;;;;34.60;7.83;;;6.00;99.90;;;;;;5008746;23;20187;-96
2023/01/30 23:46:48;;;;;;;29.03;7.27;;;5.80;99.90;;;;;;5030466;23;20178;-96
2023/01/30 23:49:15;;;;;;;30.27;7.57;;;5.70;99.90;;;;;;5034141;23;20261;-95
2023/01/30 23:51:47;;;;;;;33.97;7.20;;;5.80;99.90;;;;;;5035661;23;20159;-96
2023/01/30 23:54:17;;;;;;;35.00;7.43;;;5.80;99.90;;;;;;5035248;23;20163;-96
2023/01/30 23:57:00;;;;;;;27.57;7.47;;;5.90;99.90;;;;;;5034041;23;20206;-96
2023/01/30 23:59:23;;;;;;;;;;;;;;;;;;;;;
